Time;durP1;ratioP1;P1;durP2;ratioP2;P2;SDS_P1;SDS_P2;PMS_P1;PMS_P2;Temp;Humidity;BMP_temperature;BMP_pressure;BME280_temperature;BME280_humidity;BME280_pressure;Samples;Min_cycle;Max_cycle;Signal;HPM_P1;HPM_P2
2024/03/02 00:00:54;;;;;;;21.55;14.18;;;;;;;7.69;78.87;95579.19;4937160;29;20047;-78
2024/03/02 00:03:22;;;;;;;21.33;14.57;;;;;;;7.66;78.82;95576.97;4938913;29;20059;-78
2024/03/02 00:05:52;;;;;;;21.23;15.43;;;;;;;7.67;78.59;95575.19;4939477;29;20056;-78
2024/03/02 00:08:26;;;;;;;21.08;13.80;;;;;;;7.68;79.12;95569.81;4938864;29;20515;-78
2024/03/02 00:10:59;;;;;;;20.92;13.88;;;;;;;7.68;79.04;95577.59;4938681;29;20142;-77
2024/03/02 00:13:26;;;;;;;21.48;14.05;;;;;;;7.67;78.69;95575.97;4938260;29;20052;-78
2024/03/02 00:15:56;;;;;;;17.70;13.38;;;;;;;7.67;79.03;95570.78;4938150;29;20083;-77
2024/03/02 00:18:27;;;;;;;20.52;13.77;;;;;;;7.67;78.98;95570.00;4938338;29;20051;-77
2024/03/02 00:20:57;;;;;;;23.05;14.85;;;;;;;7.67;79.03;95570.78;4938493;29;20058;-77
2024/03/02 00:23:25;;;;;;;20.70;14.18;;;;;;;7.69;78.46;95568.81;4938151;29;20051;-77
2024/03/02 00:25:55;;;;;;;19.27;13.15;;;;;;;7.68;78.57;95576.78;4938112;29;20051;-77
2024/03/02 00:28:25;;;;;;;18.27;13.20;;;;;;;7.64;78.62;95577.16;4938092;29;20051;-78
2024/03/02 00:30:56;;;;;;;18.55;13.95;;;;;;;7.61;78.61;95576.75;4937941;29;20570;-77
2024/03/02 00:33:27;;;;;;;22.45;14.25;;;;;;;7.55;78.59;95573.09;4937955;29;20051;-77
2024/03/02 00:35:56;;;;;;;20.67;13.20;;;;;;;7.53;78.63;95569.88;4937988;29;20055;-78
2024/03/02 00:38:24;;;;;;;20.27;13.95;;;;;;;7.51;78.57;95571.06;4937728;29;20094;-77
2024/03/02 00:40:52;;;;;;;18.80;13.45;;;;;;;7.48;78.89;95567.06;4937987;29;20055;-77
2024/03/02 00:43:46;;;;;;;20.77;14.93;;;;;;;7.44;79.33;95565.81;4937589;29;20071;-77
2024/03/02 00:46:20;;;;;;;19.63;14.00;;;;;;;7.42;79.18;95576.38;4937674;29;20055;-77
2024/03/02 00:48:54;;;;;;;19.90;14.40;;;;;;;7.42;79.26;95573.00;4942856;29;20056;-77
2024/03/02 00:51:25;;;;;;;20.70;14.50;;;;;;;7.40;79.05;95569.78;4959570;29;20055;-77
2024/03/02 00:53:55;;;;;;;19.73;14.32;;;;;;;7.38;79.01;95575.16;4959037;29;20048;-77
2024/03/02 00:56:24;;;;;;;21.52;15.48;;;;;;;7.35;78.82;95566.94;4951137;29;20114;-77
2024/03/02 00:58:51;;;;;;;23.75;15.82;;;;;;;7.32;79.16;95569.91;4941787;29;20063;-76
2024/03/02 01:01:20;;;;;;;22.88;14.27;;;;;;;7.32;79.59;95573.28;4956851;29;20188;-77
2024/03/02 01:03:48;;;;;;;23.27;15.90;;;;;;;7.35;79.69;95578.13;4957759;29;20085;-78
2024/03/02 01:06:16;;;;;;;25.92;17.40;;;;;;;7.39;79.51;95581.13;4943598;29;20138;-78
2024/03/02 01:08:46;;;;;;;23.15;16.02;;;;;;;7.37;79.20;95585.72;4938763;29;20058;-79
2024/03/02 01:11:14;;;;;;;21.50;15.48;;;;;;;7.38;79.44;95588.13;4937933;29;20103;-78
2024/03/02 01:13:41;;;;;;;24.10;15.65;;;;;;;7.36;79.11;95579.72;4937876;29;20672;-78
2024/03/02 01:16:09;;;;;;;24.27;15.45;;;;;;;7.32;78.97;95578.47;4937939;29;20103;-78
2024/03/02 01:18:36;;;;;;;22.55;15.38;;;;;;;7.29;79.31;95586.66;4937902;29;20051;-78
2024/03/02 01:21:04;;;;;;;24.65;16.63;;;;;;;7.30;79.30;95590.03;4937552;29;20051;-78
2024/03/02 01:23:32;;;;;;;23.67;15.27;;;;;;;7.26;79.12;95594.00;4937308;29;20114;-79
2024/03/02 01:26:01;;;;;;;22.17;15.50;;;;;;;7.26;79.67;95594.81;4937093;29;20051;-78
2024/03/02 01:28:28;;;;;;;23.05;14.85;;;;;;;7.31;79.50;95602.84;4936876;29;20123;-78
2024/03/02 01:30:56;;;;;;;20.92;13.85;;;;;;;7.39;79.71;95599.28;4937283;29;20094;-78
2024/03/02 01:33:24;;;;;;;19.92;14.70;;;;;;;7.48;80.04;95599.97;4937183;29;20111;-78
2024/03/02 01:35:51;;;;;;;25.08;16.13;;;;;;;7.54;79.64;95594.88;4936607;29;20060;-78
2024/03/02 01:38:19;;;;;;;21.02;14.93;;;;;;;7.58;79.17;95588.28;4937072;29;20120;-78
2024/03/02 01:40:48;;;;;;;22.85;15.07;;;;;;;7.61;79.33;95593.13;4936549;29;20405;-79
2024/03/02 01:43:17;;;;;;;17.98;11.98;;;;;;;7.68;79.64;95597.56;4936594;29;20055;-78
2024/03/02 01:45:44;;;;;;;25.98;14.25;;;;;;;7.71;78.63;95595.38;4936371;29;20111;-78
2024/03/02 01:48:12;;;;;;;23.25;15.10;;;;;;;7.68;78.06;95587.19;4937805;29;20217;-79
2024/03/02 01:50:40;;;;;;;21.80;15.20;;;;;;;7.66;78.19;95589.16;4936793;29;20571;-79
2024/03/02 01:53:09;;;;;;;20.75;13.63;;;;;;;7.64;78.27;95597.91;4936733;29;20078;-78
2024/03/02 01:55:37;;;;;;;20.52;14.10;;;;;;;7.64;78.12;95592.72;4935937;29;20048;-78
2024/03/02 01:58:05;;;;;;;19.02;13.60;;;;;;;7.67;78.79;95585.56;4936553;29;20150;-78
2024/03/02 02:00:34;;;;;;;21.42;14.30;;;;;;;7.68;78.29;95587.19;4936148;29;20055;-79
2024/03/02 02:03:01;;;;;;;23.75;15.60;;;;;;;7.65;77.79;95585.75;4935711;29;20060;-79
2024/03/02 02:05:29;;;;;;;23.45;15.88;;;;;;;7.58;77.58;95571.91;4936034;29;20428;-79
2024/03/02 02:07:58;;;;;;;22.95;15.85;;;;;;;7.55;77.73;95574.91;4936091;29;20135;-78
2024/03/02 02:10:25;;;;;;;23.00;15.38;;;;;;;7.51;77.73;95574.47;4936167;29;20047;-78
2024/03/02 02:12:53;;;;;;;23.98;15.38;;;;;;;7.47;77.75;95565.44;4936069;29;20107;-78
2024/03/02 02:15:25;;;;;;;23.77;15.85;;;;;;;7.45;77.87;95567.41;4935828;29;20107;-79
2024/03/02 02:17:55;;;;;;;23.25;15.25;;;;;;;7.39;77.95;95563.78;4935715;29;20412;-78
2024/03/02 02:20:23;;;;;;;24.58;16.52;;;;;;;7.36;77.97;95565.94;4935835;29;20522;-78
2024/03/02 02:22:59;;;;;;;26.67;17.00;;;;;;;7.33;78.23;95574.13;4935548;29;20476;-79
2024/03/02 02:25:27;;;;;;;27.67;16.13;;;;;;;7.28;78.06;95577.28;4935770;29;20492;-78
2024/03/02 02:27:55;;;;;;;23.42;15.70;;;;;;;7.24;78.16;95563.06;4935790;29;20083;-78
2024/03/02 02:30:24;;;;;;;24.70;16.38;;;;;;;7.20;78.24;95564.44;4935520;29;20051;-78
2024/03/02 02:32:52;;;;;;;26.50;16.85;;;;;;;7.17;78.36;95562.19;4935525;29;20052;-78
2024/03/02 02:35:19;;;;;;;27.33;17.83;;;;;;;7.15;78.65;95567.56;4935599;29;20062;-79
2024/03/02 02:37:48;;;;;;;24.63;16.30;;;;;;;7.13;78.66;95563.56;4936005;29;20086;-79
2024/03/02 02:40:18;;;;;;;27.27;18.02;;;;;;;7.10;78.71;95563.91;4935673;29;20082;-78
2024/03/02 02:42:46;;;;;;;28.42;18.05;;;;;;;7.07;78.97;95559.13;4935703;29;20518;-78
2024/03/02 02:45:15;;;;;;;25.48;16.70;;;;;;;7.05;78.74;95553.31;4935316;29;20052;-78
2024/03/02 02:47:43;;;;;;;27.15;16.75;;;;;;;7.03;78.93;95552.69;4936316;29;20052;-78
2024/03/02 02:50:12;;;;;;;26.80;17.02;;;;;;;7.04;79.14;95549.09;4935674;29;20102;-78
2024/03/02 02:52:41;;;;;;;26.77;17.13;;;;;;;7.03;79.31;95552.69;4935366;29;20141;-78
2024/03/02 02:55:11;;;;;;;26.88;16.98;;;;;;;7.02;79.10;95551.91;4935068;29;20048;-78
2024/03/02 02:57:41;;;;;;;27.17;17.02;;;;;;;6.99;79.05;95555.63;4935523;29;20476;-79
2024/03/02 03:00:14;;;;;;;26.23;17.83;;;;;;;7.00;79.42;95553.88;4935297;29;20461;-79
2024/03/02 03:02:45;;;;;;;26.10;16.80;;;;;;;7.04;79.32;95549.09;4935253;29;20530;-78
2024/03/02 03:05:14;;;;;;;28.15;15.63;;;;;;;7.03;79.16;95550.91;4935112;29;20079;-79
2024/03/02 03:07:44;;;;;;;26.67;17.02;;;;;;;6.97;79.25;95542.06;4935140;29;20571;-79
2024/03/02 03:10:11;;;;;;;24.00;15.80;;;;;;;6.96;79.26;95545.66;4935223;29;20079;-78
2024/03/02 03:12:42;;;;;;;26.63;17.90;;;;;;;6.95;79.35;95549.25;4935097;29;20052;-78
2024/03/02 03:15:11;;;;;;;24.20;15.57;;;;;;;6.95;79.37;95546.66;4934966;29;20483;-78
2024/03/02 03:17:39;;;;;;;28.65;16.98;;;;;;;6.95;79.48;95545.81;4935101;29;20420;-78
2024/03/02 03:20:09;;;;;;;26.65;17.42;;;;;;;6.94;79.57;95547.63;4934863;29;20460;-78
2024/03/02 03:22:38;;;;;;;26.80;17.73;;;;;;;6.91;79.30;95545.41;4934922;29;20051;-79
2024/03/02 03:25:07;;;;;;;24.98;16.63;;;;;;;6.89;79.60;95547.38;4934709;29;20468;-78
2024/03/02 03:27:35;;;;;;;25.05;16.73;;;;;;;6.88;79.59;95535.38;4935137;29;20519;-79
2024/03/02 03:30:06;;;;;;;27.88;17.40;;;;;;;6.86;79.80;95546.94;4935170;29;20087;-78
2024/03/02 03:32:34;;;;;;;28.15;18.02;;;;;;;6.83;79.77;95542.94;4935165;29;20048;-78
2024/03/02 03:35:02;;;;;;;29.90;17.70;;;;;;;6.81;79.75;95553.47;4934739;29;20051;-79
2024/03/02 03:37:32;;;;;;;27.38;17.25;;;;;;;6.80;79.72;95554.47;4938541;29;20058;-78
2024/03/02 03:40:02;;;;;;;30.70;17.98;;;;;;;6.80;79.77;95543.31;4938589;29;20051;-78
2024/03/02 03:42:29;;;;;;;25.27;16.30;;;;;;;6.83;80.17;95553.28;4938454;29;20126;-79
2024/03/02 03:44:57;;;;;;;28.30;17.27;;;;;;;6.85;79.58;95543.56;4938568;29;20051;-78
2024/03/02 03:47:26;;;;;;;27.50;16.80;;;;;;;6.89;79.57;95536.22;4938963;29;20048;-79
2024/03/02 03:49:54;;;;;;;27.92;15.88;;;;;;;6.88;79.44;95548.34;4938364;29;20579;-79
2024/03/02 03:52:21;;;;;;;26.23;16.15;;;;;;;6.91;79.64;95549.78;4938103;29;20052;-79
2024/03/02 03:54:49;;;;;;;30.27;18.05;;;;;;;6.92;79.61;95557.38;4938151;29;20500;-79
2024/03/02 03:57:17;;;;;;;28.00;16.63;;;;;;;6.94;79.79;95558.00;4938429;29;20051;-78
2024/03/02 03:59:46;;;;;;;27.58;18.00;;;;;;;6.95;79.44;95562.22;4938386;29;20054;-79
2024/03/02 04:02:13;;;;;;;30.05;19.08;;;;;;;7.00;79.55;95559.06;4938118;29;20094;-78
2024/03/02 04:04:43;;;;;;;28.40;17.13;;;;;;;7.03;79.12;95563.06;4937926;29;20090;-78
2024/03/02 04:07:11;;;;;;;27.25;17.35;;;;;;;7.01;79.36;95571.81;4938368;29;20556;-78
2024/03/02 04:09:38;;;;;;;25.70;16.60;;;;;;;7.01;79.03;95566.63;4938077;29;20084;-78
2024/03/02 04:12:06;;;;;;;25.90;15.40;;;;;;;7.03;79.31;95568.25;4938020;29;20495;-78
2024/03/02 04:14:33;;;;;;;26.60;15.45;;;;;;;7.06;79.07;95568.66;4937866;29;20142;-78
2024/03/02 04:17:01;;;;;;;27.63;16.95;;;;;;;7.09;79.16;95570.13;4938111;29;20058;-79
2024/03/02 04:19:29;;;;;;;29.50;17.35;;;;;;;7.13;79.05;95573.94;4938039;29;20420;-78
2024/03/02 04:21:58;;;;;;;27.38;16.20;;;;;;;7.12;78.87;95575.72;4937970;29;20067;-79
2024/03/02 04:24:32;;;;;;;22.48;14.85;;;;;;;7.08;78.83;95577.06;4937615;29;20083;-78
2024/03/02 04:26:59;;;;;;;25.70;16.85;;;;;;;7.07;78.80;95566.91;4937688;29;20044;-78
2024/03/02 04:29:27;;;;;;;26.63;17.65;;;;;;;7.01;78.84;95561.44;4937389;29;20056;-78
2024/03/02 04:31:54;;;;;;;25.95;16.85;;;;;;;6.92;78.86;95557.38;4937735;29;20192;-78
2024/03/02 04:34:22;;;;;;;23.35;16.20;;;;;;;6.87;79.29;95561.53;4937458;29;20503;-78
2024/03/02 04:36:50;;;;;;;26.80;16.50;;;;;;;6.83;79.21;95558.47;4948923;29;20063;-78
2024/03/02 04:39:19;;;;;;;27.00;17.38;;;;;;;6.81;79.60;95560.44;4960690;29;20048;-78
2024/03/02 04:41:47;;;;;;;27.50;17.13;;;;;;;6.78;79.27;95560.84;4958068;29;20048;-79
2024/03/02 04:44:15;;;;;;;27.55;17.33;;;;;;;6.72;79.45;95562.34;4938713;29;20115;-78
2024/03/02 04:46:42;;;;;;;28.88;16.80;;;;;;;6.67;79.52;95576.81;4938344;29;20048;-79
2024/03/02 04:49:10;;;;;;;27.15;16.38;;;;;;;6.64;79.83;95574.63;4937542;29;20512;-78
2024/03/02 04:51:37;;;;;;;26.63;16.73;;;;;;;6.64;79.91;95570.22;4937582;29;20106;-78
2024/03/02 04:54:05;;;;;;;22.88;15.07;;;;;;;6.62;79.97;95577.38;4937859;29;20484;-78
2024/03/02 04:56:44;;;;;;;24.92;17.05;;;;;;;6.62;80.19;95567.00;4937228;29;20106;-78
2024/03/02 04:59:12;;;;;;;24.17;14.85;;;;;;;6.60;80.14;95575.00;4937838;29;20055;-78
2024/03/02 05:01:39;;;;;;;24.15;15.30;;;;;;;6.58;79.65;95582.13;4937465;29;20138;-78
2024/03/02 05:04:07;;;;;;;25.48;15.65;;;;;;;6.58;79.95;95574.38;4937346;29;20051;-78
2024/03/02 05:06:35;;;;;;;25.48;15.90;;;;;;;6.57;79.99;95584.91;4937282;29;20115;-78
2024/03/02 05:09:02;;;;;;;24.42;15.52;;;;;;;6.59;79.92;95582.94;4937383;29;20051;-78
2024/03/02 05:11:48;;;;;;;22.60;14.95;;;;;;;6.64;80.12;95584.97;4937596;29;20060;-78
2024/03/02 05:14:17;;;;;;;24.27;15.32;;;;;;;6.69;80.15;95588.66;4937093;29;20483;-79
2024/03/02 05:16:45;;;;;;;23.33;15.05;;;;;;;6.68;79.66;95587.03;4936744;29;20135;-78
2024/03/02 05:19:13;;;;;;;22.00;14.50;;;;;;;6.67;80.05;95590.63;4937577;29;20416;-78
2024/03/02 05:21:40;;;;;;;23.40;14.82;;;;;;;6.68;79.98;95586.22;4946841;29;20084;-79
2024/03/02 05:24:08;;;;;;;24.20;15.23;;;;;;;6.66;79.53;95583.00;4958593;29;20055;-79
2024/03/02 05:26:36;;;;;;;23.80;15.88;;;;;;;6.61;79.88;95580.97;4958427;29;20055;-79
2024/03/02 05:29:03;;;;;;;21.50;14.05;;;;;;;6.56;79.77;95578.94;4941440;29;20139;-78
2024/03/02 05:31:32;;;;;;;21.95;14.55;;;;;;;6.50;79.88;95579.66;4938548;29;20082;-78
2024/03/02 05:34:00;;;;;;;25.52;14.80;;;;;;;6.44;79.83;95577.78;4937268;29;20401;-78
2024/03/02 05:36:28;;;;;;;25.23;16.15;;;;;;;6.36;80.09;95578.69;4937050;29;20048;-78
2024/03/02 05:38:55;;;;;;;24.73;15.57;;;;;;;6.31;80.48;95585.38;4937250;29;20115;-79
2024/03/02 05:41:23;;;;;;;22.90;14.88;;;;;;;6.26;80.51;95588.50;4936724;29;20050;-79
2024/03/02 05:43:51;;;;;;;24.42;16.40;;;;;;;6.20;80.72;95581.44;4936695;29;20289;-78
2024/03/02 05:46:18;;;;;;;22.00;15.15;;;;;;;6.16;81.18;95586.19;4938306;29;20047;-78
2024/03/02 05:48:47;;;;;;;26.02;15.45;;;;;;;6.14;81.21;95587.34;4954572;29;20059;-79
2024/03/02 05:51:14;;;;;;;24.40;15.15;;;;;;;6.10;81.25;95589.50;4953835;29;20051;-79
2024/03/02 05:53:42;;;;;;;25.17;15.43;;;;;;;6.09;81.76;95592.25;4954385;29;20063;-79
2024/03/02 05:56:11;;;;;;;26.63;15.05;;;;;;;6.06;81.62;95583.06;4953996;29;20055;-79
2024/03/02 05:58:53;;;;;;;22.85;14.75;;;;;;;6.02;81.88;95587.00;4953504;29;20059;-79
2024/03/02 06:01:22;;;;;;;27.23;16.27;;;;;;;6.01;81.83;95598.31;4953418;29;20059;-79
2024/03/02 06:03:51;;;;;;;26.05;16.45;;;;;;;5.99;81.90;95595.09;4936898;29;20048;-79
2024/03/02 06:06:19;;;;;;;24.75;15.82;;;;;;;5.94;82.00;95592.22;4936878;29;20460;-78
2024/03/02 06:08:46;;;;;;;24.83;15.70;;;;;;;5.93;82.22;95593.22;4936587;29;20519;-78
2024/03/02 06:11:14;;;;;;;24.75;15.43;;;;;;;5.90;82.49;95596.97;4936814;29;20051;-78
2024/03/02 06:13:42;;;;;;;26.35;16.52;;;;;;;5.90;82.62;95596.13;4935944;29;20063;-79
2024/03/02 06:16:09;;;;;;;22.65;14.38;;;;;;;5.87;82.81;95599.88;4936337;29;20067;-78
2024/03/02 06:18:37;;;;;;;26.08;17.13;;;;;;;5.87;82.78;95601.69;4936508;29;20057;-78
2024/03/02 06:21:06;;;;;;;24.20;15.45;;;;;;;5.86;82.99;95600.06;4936492;29;20053;-78
2024/03/02 06:23:34;;;;;;;24.45;15.55;;;;;;;5.85;82.91;95604.44;4936097;29;20567;-78
2024/03/02 06:26:02;;;;;;;25.50;15.38;;;;;;;5.85;82.76;95601.06;4936138;29;20099;-78
2024/03/02 06:28:30;;;;;;;24.88;15.02;;;;;;;5.86;83.03;95607.81;4935986;29;20431;-79
2024/03/02 06:30:57;;;;;;;23.63;14.82;;;;;;;5.85;82.96;95607.03;4936010;29;20329;-78
2024/03/02 06:33:25;;;;;;;25.27;14.80;;;;;;;5.85;83.11;95606.22;4936129;29;20051;-79
2024/03/02 06:35:52;;;;;;;23.60;14.93;;;;;;;5.85;83.07;95616.56;4936025;29;20052;-78
2024/03/02 06:38:21;;;;;;;31.85;16.13;;;;;;;5.84;83.28;95614.94;4936297;29;20091;-78
2024/03/02 06:40:49;;;;;;;22.15;13.38;;;;;;;5.83;83.43;95608.19;4936068;29;20051;-78
2024/03/02 06:43:17;;;;;;;25.33;14.27;;;;;;;5.83;83.53;95613.34;4935904;29;20389;-78
2024/03/02 06:45:44;;;;;;;25.88;15.02;;;;;;;5.85;83.33;95619.16;4936010;29;20122;-78
2024/03/02 06:48:12;;;;;;;21.45;14.13;;;;;;;5.88;83.20;95621.38;4936846;29;20048;-78
2024/03/02 06:50:39;;;;;;;19.25;12.82;;;;;;;5.92;83.40;95622.66;4935984;29;20052;-78
2024/03/02 06:53:07;;;;;;;19.65;12.50;;;;;;;5.96;83.41;95624.75;4935795;29;20138;-79
2024/03/02 06:55:36;;;;;;;19.88;12.35;;;;;;;6.00;83.18;95620.03;4935422;29;20119;-79
2024/03/02 06:58:04;;;;;;;23.92;14.75;;;;;;;6.01;83.15;95611.25;4935490;29;20112;-78
2024/03/02 07:00:32;;;;;;;22.40;15.05;;;;;;;6.03;83.09;95614.47;4935682;29;20058;-79
2024/03/02 07:02:59;;;;;;;23.55;14.35;;;;;;;6.04;83.06;95613.50;4934949;29;20167;-77
2024/03/02 07:05:27;;;;;;;22.40;14.00;;;;;;;6.06;83.16;95614.13;4935534;29;20055;-77
2024/03/02 07:07:55;;;;;;;21.70;13.23;;;;;;;6.07;83.03;95607.97;4937379;29;20048;-77
2024/03/02 07:10:23;;;;;;;19.83;13.57;;;;;;;6.12;82.89;95623.78;4937750;29;20138;-77
2024/03/02 07:12:51;;;;;;;22.63;14.48;;;;;;;6.16;82.92;95630.19;4939574;29;20107;-77
2024/03/02 07:15:42;;;;;;;19.77;13.18;;;;;;;6.19;82.84;95627.28;4939114;29;20067;-77
2024/03/02 07:18:10;;;;;;;22.45;13.48;;;;;;;6.25;82.76;95628.31;4939335;29;20405;-78
2024/03/02 07:20:38;;;;;;;20.23;13.55;;;;;;;6.31;82.41;95632.00;4939100;29;20094;-77
2024/03/02 07:23:06;;;;;;;22.60;14.75;;;;;;;6.36;82.88;95630.50;4939074;29;20051;-77
2024/03/02 07:25:34;;;;;;;20.25;13.82;;;;;;;6.45;82.68;95627.78;4939242;29;20110;-78
2024/03/02 07:28:07;;;;;;;21.50;13.50;;;;;;;6.49;82.04;95626.44;4939419;29;20098;-78
2024/03/02 07:30:34;;;;;;;22.85;14.40;;;;;;;6.52;81.98;95621.72;4939416;29;20411;-78
2024/03/02 07:33:02;;;;;;;21.98;13.65;;;;;;;6.58;81.97;95625.38;4938798;29;20228;-78
2024/03/02 07:35:31;;;;;;;23.50;14.70;;;;;;;6.64;81.78;95626.44;4939428;29;20051;-77
2024/03/02 07:37:59;;;;;;;23.27;14.32;;;;;;;6.72;82.15;95632.31;4939476;29;20429;-78
2024/03/02 07:40:27;;;;;;;21.67;13.60;;;;;;;6.85;81.79;95633.47;4939204;29;20059;-77
2024/03/02 07:42:54;;;;;;;20.38;13.38;;;;;;;6.95;81.66;95634.81;4938981;29;20079;-78
2024/03/02 07:45:23;;;;;;;20.33;13.60;;;;;;;7.07;81.23;95642.09;4938872;29;20070;-78
2024/03/02 07:47:51;;;;;;;20.38;14.10;;;;;;;7.14;80.92;95641.16;4938974;29;20048;-78
2024/03/02 07:50:19;;;;;;;20.35;13.30;;;;;;;7.22;80.59;95637.66;4938541;29;20060;-77
2024/03/02 07:52:46;;;;;;;21.83;14.45;;;;;;;7.27;80.01;95637.13;4938704;29;20422;-77
2024/03/02 07:55:14;;;;;;;19.95;13.77;;;;;;;7.29;79.85;95640.31;4938539;29;20150;-78
2024/03/02 07:57:42;;;;;;;19.65;13.52;;;;;;;7.32;79.65;95640.75;4938385;29;20107;-77
2024/03/02 08:00:11;;;;;;;18.98;13.50;;;;;;;7.37;79.57;95643.59;4938055;29;20063;-77
2024/03/02 08:02:42;;;;;;;21.17;13.68;;;;;;;7.44;79.37;95641.06;4938197;29;20055;-77
2024/03/02 08:05:10;;;;;;;19.08;13.63;;;;;;;7.51;79.06;95639.34;4938104;29;20059;-77
2024/03/02 08:07:38;;;;;;;17.95;12.90;;;;;;;7.57;78.73;95637.81;4938274;29;20061;-77
2024/03/02 08:10:07;;;;;;;17.25;12.38;;;;;;;7.60;78.85;95630.44;4938262;29;20134;-78
2024/03/02 08:12:35;;;;;;;19.95;13.30;;;;;;;7.68;78.51;95626.91;4938103;29;20103;-77
2024/03/02 08:15:02;;;;;;;18.98;13.48;;;;;;;7.74;78.19;95628.75;4958466;29;20052;-77
2024/03/02 08:17:30;;;;;;;17.52;11.93;;;;;;;7.81;77.91;95628.81;4959687;29;20035;-77
2024/03/02 08:20:00;;;;;;;15.73;11.38;;;;;;;7.90;77.81;95625.06;4948778;29;20507;-78
2024/03/02 08:22:28;;;;;;;16.70;11.32;;;;;;;8.01;77.28;95624.56;4938561;29;20055;-77
2024/03/02 08:24:56;;;;;;;14.70;11.05;;;;;;;8.10;77.14;95630.41;4938128;29;20047;-78
2024/03/02 08:27:23;;;;;;;15.27;11.27;;;;;;;8.19;76.53;95629.25;4937933;29;20051;-78
2024/03/02 08:29:51;;;;;;;15.10;10.45;;;;;;;8.30;75.99;95634.94;4937942;29;20063;-78
2024/03/02 08:32:19;;;;;;;14.55;10.50;;;;;;;8.36;75.52;95634.16;4937886;29;20068;-78
2024/03/02 08:34:47;;;;;;;15.65;11.10;;;;;;;8.42;75.35;95628.25;4938312;29;20058;-77
2024/03/02 08:37:16;;;;;;;12.25;9.25;;;;;;;8.50;74.80;95635.06;4938214;29;20138;-77
2024/03/02 08:39:44;;;;;;;14.13;9.65;;;;;;;8.56;74.82;95635.09;4938217;29;20572;-78
2024/03/02 08:42:12;;;;;;;12.98;9.98;;;;;;;8.65;74.41;95639.13;4937693;29;20138;-77
2024/03/02 08:44:39;;;;;;;11.13;8.93;;;;;;;8.75;74.33;95625.78;4937417;29;20571;-77
2024/03/02 08:47:07;;;;;;;12.63;9.68;;;;;;;8.86;74.00;95621.84;4937462;29;20083;-78
2024/03/02 08:49:34;;;;;;;12.02;9.13;;;;;;;8.93;73.73;95630.47;4937639;29;20087;-78
2024/03/02 08:52:02;;;;;;;11.25;8.68;;;;;;;8.96;73.36;95632.66;4937311;29;20055;-78
2024/03/02 08:54:31;;;;;;;13.55;8.73;;;;;;;9.00;73.09;95631.28;4937350;29;20172;-78
2024/03/02 08:56:58;;;;;;;10.30;8.30;;;;;;;9.04;73.02;95629.09;4937022;29;20538;-77
2024/03/02 08:59:27;;;;;;;11.88;8.90;;;;;;;9.05;72.86;95636.72;4937140;29;20044;-78
2024/03/02 09:01:55;;;;;;;11.77;8.57;;;;;;;9.10;72.82;95635.31;4936956;29;20131;-77
2024/03/02 09:04:23;;;;;;;13.80;8.73;;;;;;;9.18;72.91;95632.53;4937118;29;20126;-78
2024/03/02 09:06:54;;;;;;;11.60;8.50;;;;;;;9.29;72.88;95621.53;4937125;29;20060;-78
2024/03/02 09:09:22;;;;;;;10.65;8.93;;;;;;;9.40;72.53;95631.38;4937548;29;20424;-78
2024/03/02 09:11:51;;;;;;;11.00;8.68;;;;;;;9.50;71.65;95625.78;4938014;29;20408;-78
2024/03/02 09:14:19;;;;;;;10.13;7.80;;;;;;;9.61;71.63;95629.59;4938202;29;20087;-78
2024/03/02 09:16:47;;;;;;;8.95;7.57;;;;;;;9.75;71.37;95619.97;4937105;29;20051;-78
2024/03/02 09:19:14;;;;;;;8.80;7.00;;;;;;;9.90;70.93;95628.41;4936934;29;20517;-78
2024/03/02 09:21:43;;;;;;;11.77;7.93;;;;;;;10.09;69.95;95626.78;4937060;29;20134;-77
2024/03/02 09:24:12;;;;;;;9.25;7.65;;;;;;;10.31;69.52;95630.00;4936802;29;20296;-78
2024/03/02 09:26:44;;;;;;;9.05;6.47;;;;;;;10.56;69.29;95637.97;4936709;29;20058;-78
2024/03/02 09:29:13;;;;;;;8.63;6.70;;;;;;;10.83;68.39;95628.25;4937555;29;20052;-78
2024/03/02 09:31:40;;;;;;;8.45;6.43;;;;;;;11.11;67.85;95632.34;4937569;29;20084;-78
2024/03/02 09:34:08;;;;;;;10.05;7.35;;;;;;;11.35;66.58;95625.59;4937253;29;20143;-77
2024/03/02 09:36:36;;;;;;;9.52;6.90;;;;;;;11.56;65.27;95624.44;4936977;29;20491;-78
2024/03/02 09:39:04;;;;;;;8.70;6.72;;;;;;;11.79;65.60;95623.88;4937396;29;20047;-78
2024/03/02 09:41:34;;;;;;;8.18;7.30;;;;;;;12.06;63.46;95626.28;4937237;29;20142;-78
2024/03/02 09:44:02;;;;;;;8.27;6.85;;;;;;;12.28;63.00;95619.63;4936316;29;20135;-78
2024/03/02 09:46:31;;;;;;;7.47;5.97;;;;;;;12.56;62.28;95623.59;4936077;29;20508;-78
2024/03/02 09:48:59;;;;;;;7.22;6.15;;;;;;;12.87;60.85;95619.22;4936318;29;20134;-78
2024/03/02 09:51:27;;;;;;;7.13;6.32;;;;;;;13.14;60.34;95612.63;4947066;29;20047;-79
2024/03/02 09:53:56;;;;;;;7.72;5.90;;;;;;;13.49;59.28;95613.78;4953275;29;20055;-79
2024/03/02 09:56:39;;;;;;;6.35;5.50;;;;;;;13.90;58.18;95602.47;4951136;29;20055;-79
2024/03/02 09:59:07;;;;;;;6.88;5.15;;;;;;;14.23;56.65;95603.72;4945723;29;20048;-79
2024/03/02 10:01:36;;;;;;;5.72;4.80;;;;;;;14.55;56.37;95606.81;4953013;29;20090;-79
2024/03/02 10:04:06;;;;;;;7.53;4.93;;;;;;;14.92;54.72;95600.44;4953061;29;20133;-79
2024/03/02 10:06:33;;;;;;;6.00;4.88;;;;;;;15.27;54.03;95608.19;4943432;29;20048;-79
2024/03/02 10:09:01;;;;;;;5.43;4.63;;;;;;;15.57;52.65;95602.69;4936009;29;20047;-76
2024/03/02 10:11:31;;;;;;;6.43;4.30;;;;;;;15.82;51.61;95604.16;4936075;29;20100;-79
2024/03/02 10:14:07;;;;;;;5.03;4.53;;;;;;;16.11;49.33;95606.69;4936092;29;20063;-78
2024/03/02 10:16:40;;;;;;;5.45;4.95;;;;;;;16.25;48.38;95600.06;4935946;29;20048;-76
2024/03/02 10:19:18;;;;;;;5.10;4.60;;;;;;;16.37;48.98;95605.22;4935870;29;20048;-76
2024/03/02 10:21:46;;;;;;;4.30;3.78;;;;;;;16.62;49.00;95592.41;4935362;29;20082;-76
2024/03/02 10:24:14;;;;;;;4.28;3.78;;;;;;;16.76;47.48;95603.34;4936016;29;20048;-77
2024/03/02 10:26:42;;;;;;;3.90;3.40;;;;;;;16.83;48.42;95598.72;4935664;29;20500;-77
2024/03/02 10:29:11;;;;;;;4.40;3.53;;;;;;;16.99;46.88;95604.16;4936136;29;20079;-77
2024/03/02 10:31:40;;;;;;;3.95;3.58;;;;;;;17.02;46.30;95601.84;4935782;29;20099;-77
2024/03/02 10:34:09;;;;;;;4.38;3.33;;;;;;;17.02;46.06;95598.41;4935820;29;20530;-77
2024/03/02 10:36:37;;;;;;;3.30;3.00;;;;;;;16.81;46.13;95594.75;4935240;29;20492;-77
2024/03/02 10:39:06;;;;;;;3.83;3.42;;;;;;;16.77;46.33;95594.44;4935516;29;20052;-77
2024/03/02 10:41:35;;;;;;;6.05;3.42;;;;;;;16.77;45.74;95589.16;4936387;29;20142;-77
2024/03/02 10:44:04;;;;;;;5.10;3.13;;;;;;;16.65;45.73;95596.38;4935311;29;20102;-78
2024/03/02 10:46:32;;;;;;;3.47;3.03;;;;;;;16.51;46.00;95588.03;4935660;29;20572;-77
2024/03/02 10:49:03;;;;;;;4.38;2.75;;;;;;;16.32;46.00;95584.09;4935680;29;20126;-78
2024/03/02 10:51:36;;;;;;;3.88;2.40;;;;;;;16.18;46.26;95583.63;4935486;29;20508;-78
2024/03/02 10:54:05;;;;;;;3.17;2.33;;;;;;;16.06;46.05;95583.72;4935554;29;20048;-77
2024/03/02 10:56:36;;;;;;;2.55;2.35;;;;;;;15.96;46.59;95579.13;4934865;29;20047;-78
2024/03/02 10:59:07;;;;;;;4.13;2.13;;;;;;;15.92;46.04;95583.28;4935678;29;20048;-78
2024/03/02 11:01:35;;;;;;;2.92;2.33;;;;;;;15.93;46.51;95576.97;4935561;29;20626;-78
2024/03/02 11:04:09;;;;;;;2.35;2.15;;;;;;;15.99;45.70;95568.13;4935675;29;20051;-79
2024/03/02 11:06:39;;;;;;;1.70;1.60;;;;;;;15.96;45.86;95568.63;4935962;29;20118;-78
2024/03/02 11:09:09;;;;;;;1.73;1.63;;;;;;;15.86;46.10;95560.56;4944451;29;20253;-79
2024/03/02 11:11:40;;;;;;;3.08;1.88;;;;;;;15.77;45.60;95560.16;4946685;29;20055;-77
2024/03/02 11:14:11;;;;;;;3.13;1.95;;;;;;;15.60;45.61;95549.63;4946252;29;20048;-78
2024/03/02 11:16:41;;;;;;;1.70;1.40;;;;;;;15.51;45.89;95551.06;4940391;29;20052;-79
2024/03/02 11:19:13;;;;;;;3.65;1.52;;;;;;;15.47;45.39;95546.50;4935458;29;20508;-78
2024/03/02 11:21:45;;;;;;;1.30;1.20;;;;;;;15.41;46.08;95546.44;4935061;29;20047;-79
2024/03/02 11:24:32;;;;;;;1.00;1.00;;;;;;;15.42;45.03;95552.50;4935093;29;20193;-78
2024/03/02 11:27:11;;;;;;;1.90;0.80;;;;;;;15.34;45.62;95545.78;4934912;29;20107;-78
2024/03/02 11:29:46;;;;;;;4.03;0.73;;;;;;;15.25;45.11;95537.50;4935347;29;20126;-78
2024/03/02 11:32:23;;;;;;;0.80;0.63;;;;;;;15.25;45.23;95532.22;4934879;29;20112;-78
2024/03/02 11:34:52;;;;;;;1.67;1.23;;;;;;;15.31;45.88;95527.09;4934711;29;20138;-78